Time,TemperatureF,DewpointF,PressureIn,WindDirection,WindDirectionDegrees,WindSpeedMPH,WindSpeedGustMPH,Humidity,HourlyPrecipIn,Conditions,Clouds,dailyrainin,SoftwareType,DateUTC
2013-01-16 00:03:00,43.0,-99.9,30.20,NW,322,18.0,23.0,-999,-99.99,,,-99.99,,2013-01-16 06:03:00,
2013-01-16 00:12:00,43.0,-99.9,30.20,NW,322,17.0,21.0,-999,-99.99,,,-99.99,,2013-01-16 06:12:00,
2013-01-16 00:22:00,43.0,-99.9,30.22,NW,326,19.0,27.0,-999,-99.99,,,-99.99,,2013-01-16 06:22:00,
2013-01-16 00:33:00,43.0,-99.9,30.22,NW,323,23.0,28.0,-999,-99.99,,,-99.99,,2013-01-16 06:33:00,
2013-01-16 00:43:00,43.0,-99.9,30.22,NW,325,19.0,26.0,-999,-99.99,,,-99.99,,2013-01-16 06:43:00,
2013-01-16 00:53:00,43.0,-99.9,30.22,NNW,328,23.0,28.0,-999,-99.99,,,-99.99,,2013-01-16 06:53:00,
2013-01-16 01:02:00,43.0,-99.9,30.22,NW,318,22.0,27.0,-999,-99.99,,,-99.99,,2013-01-16 07:02:00,
2013-01-16 01:12:00,43.0,-99.9,30.22,NW,322,23.0,28.0,-999,-99.99,,,-99.99,,2013-01-16 07:12:00,
2013-01-16 01:22:00,43.0,-99.9,30.23,NW,323,21.0,26.0,-999,-99.99,,,-99.99,,2013-01-16 07:22:00,
2013-01-16 01:33:00,43.0,-99.9,30.23,NW,324,21.0,26.0,-999,-99.99,,,-99.99,,2013-01-16 07:33:00,
2013-01-16 01:42:00,43.0,-99.9,30.23,NW,316,23.0,27.0,-999,-99.99,,,-99.99,,2013-01-16 07:42:00,
2013-01-16 01:52:00,43.0,-99.9,30.24,NW,320,22.0,26.0,-999,-99.99,,,-99.99,,2013-01-16 07:52:00,
2013-01-16 02:03:00,43.0,-99.9,30.24,NW,317,19.0,24.0,-999,-99.99,,,-99.99,,2013-01-16 08:03:00,
2013-01-16 02:12:00,43.0,-99.9,30.24,NW,321,22.0,27.0,-999,-99.99,,,-99.99,,2013-01-16 08:12:00,
2013-01-16 02:23:00,43.0,-99.9,30.24,NW,321,20.0,24.0,-999,-99.99,,,-99.99,,2013-01-16 08:23:00,
2013-01-16 02:33:00,43.0,-99.9,30.24,NNW,329,22.0,28.0,-999,-99.99,,,-99.99,,2013-01-16 08:33:00,
2013-01-16 02:42:00,43.0,-99.9,30.24,NNW,328,23.0,28.0,-999,-99.99,,,-99.99,,2013-01-16 08:42:00,
2013-01-16 02:53:00,43.0,-99.9,30.24,NNW,333,27.0,32.0,-999,-99.99,,,-99.99,,2013-01-16 08:53:00,
2013-01-16 03:02:00,43.0,-99.9,30.25,NNW,327,21.0,25.0,-999,-99.99,,,-99.99,,2013-01-16 09:02:00,
2013-01-16 03:12:00,43.0,-99.9,30.24,NW,325,22.0,27.0,-999,-99.99,,,-99.99,,2013-01-16 09:12:00,
2013-01-16 03:22:00,43.0,-99.9,30.24,NNW,328,19.0,26.0,-999,-99.99,,,-99.99,,2013-01-16 09:22:00,
2013-01-16 03:33:00,43.0,-99.9,30.24,NW,323,22.0,26.0,-999,-99.99,,,-99.99,,2013-01-16 09:33:00,
2013-01-16 03:43:00,43.0,-99.9,30.25,NNW,333,20.0,28.0,-999,-99.99,,,-99.99,,2013-01-16 09:43:00,
2013-01-16 03:53:00,43.0,-99.9,30.25,NW,325,18.0,29.0,-999,-99.99,,,-99.99,,2013-01-16 09:53:00,
2013-01-16 04:03:00,43.0,-99.9,30.25,NW,326,22.0,28.0,-999,-99.99,,,-99.99,,2013-01-16 10:03:00,
2013-01-16 04:12:00,43.0,-99.9,30.25,NW,323,23.0,28.0,-999,-99.99,,,-99.99,,2013-01-16 10:12:00,
2013-01-16 04:22:00,43.0,-99.9,30.25,NNW,328,21.0,27.0,-999,-99.99,,,-99.99,,2013-01-16 10:22:00,
2013-01-16 04:33:00,43.0,-99.9,30.25,NW,325,17.0,22.0,-999,-99.99,,,-99.99,,2013-01-16 10:33:00,
2013-01-16 04:43:00,43.0,-99.9,30.25,NW,326,17.0,22.0,-999,-99.99,,,-99.99,,2013-01-16 10:43:00,
2013-01-16 04:53:00,43.0,-99.9,30.25,NW,322,19.0,24.0,-999,-99.99,,,-99.99,,2013-01-16 10:53:00,
2013-01-16 05:02:00,43.0,-99.9,30.26,NW,325,17.0,24.0,-999,-99.99,,,-99.99,,2013-01-16 11:02:00,
2013-01-16 05:12:00,43.0,-99.9,30.25,NW,318,18.0,25.0,-999,-99.99,,,-99.99,,2013-01-16 11:12:00,
2013-01-16 05:23:00,43.0,-99.9,30.27,NW,317,18.0,26.0,-999,-99.99,,,-99.99,,2013-01-16 11:23:00,
2013-01-16 05:33:00,43.0,-99.9,30.27,NW,316,19.0,21.0,-999,-99.99,,,-99.99,,2013-01-16 11:33:00,
2013-01-16 05:43:00,42.0,-99.9,30.27,NW,316,17.0,21.0,-999,-99.99,,,-99.99,,2013-01-16 11:43:00,
2013-01-16 05:53:00,43.0,-99.9,30.28,NW,317,18.0,21.0,-999,-99.99,,,-99.99,,2013-01-16 11:53:00,
2013-01-16 06:03:00,42.0,-99.9,30.29,NW,316,15.0,20.0,-999,-99.99,,,-99.99,,2013-01-16 12:03:00,
2013-01-16 06:13:00,42.0,-99.9,30.29,NW,310,14.0,23.0,-999,-99.99,,,-99.99,,2013-01-16 12:13:00,
2013-01-16 06:22:00,42.0,-99.9,30.29,NW,308,18.0,23.0,-999,-99.99,,,-99.99,,2013-01-16 12:22:00,
2013-01-16 06:33:00,42.0,-99.9,30.30,NW,306,17.0,24.0,-999,-99.99,,,-99.99,,2013-01-16 12:33:00,
2013-01-16 06:43:00,41.0,-99.9,30.30,NW,312,20.0,23.0,-999,-99.99,,,-99.99,,2013-01-16 12:43:00,
2013-01-16 06:53:00,41.0,-99.9,30.30,NW,308,18.0,23.0,-999,-99.99,,,-99.99,,2013-01-16 12:53:00,
2013-01-16 07:03:00,40.0,-99.9,30.30,NW,307,15.0,20.0,-999,-99.99,,,-99.99,,2013-01-16 13:03:00,
2013-01-16 07:13:00,40.0,-99.9,30.31,NW,308,17.0,21.0,-999,-99.99,,,-99.99,,2013-01-16 13:13:00,
2013-01-16 07:23:00,40.0,-99.9,30.32,NW,305,13.0,18.0,-999,-99.99,,,-99.99,,2013-01-16 13:23:00,
2013-01-16 07:33:00,41.0,-99.9,30.32,NW,312,18.0,23.0,-999,-99.99,,,-99.99,,2013-01-16 13:33:00,
2013-01-16 07:43:00,41.0,-99.9,30.32,NW,315,19.0,23.0,-999,-99.99,,,-99.99,,2013-01-16 13:43:00,
2013-01-16 07:53:00,41.0,-99.9,30.32,NW,316,17.0,22.0,-999,-99.99,,,-99.99,,2013-01-16 13:53:00,
2013-01-16 08:03:00,41.0,-99.9,30.33,NW,321,15.0,19.0,-999,-99.99,,,-99.99,,2013-01-16 14:03:00,
2013-01-16 08:12:00,41.0,-99.9,30.33,NW,319,14.0,17.0,-999,-99.99,,,-99.99,,2013-01-16 14:12:00,
2013-01-16 08:23:00,41.0,-99.9,30.34,NW,316,17.0,24.0,-999,-99.99,,,-99.99,,2013-01-16 14:23:00,
2013-01-16 08:33:00,41.0,-99.9,30.35,NW,310,17.0,23.0,-999,-99.99,,,-99.99,,2013-01-16 14:33:00,
2013-01-16 08:43:00,41.0,-99.9,30.35,NW,317,16.0,22.0,-999,-99.99,,,-99.99,,2013-01-16 14:43:00,
2013-01-16 08:53:00,41.0,-99.9,30.35,NW,313,18.0,22.0,-999,-99.99,,,-99.99,,2013-01-16 14:53:00,
2013-01-16 09:03:00,42.0,-99.9,30.36,NW,315,20.0,25.0,-999,-99.99,,,-99.99,,2013-01-16 15:03:00,
2013-01-16 09:12:00,41.0,-99.9,30.36,NW,322,19.0,23.0,-999,-99.99,,,-99.99,,2013-01-16 15:12:00,
2013-01-16 09:23:00,42.0,-99.9,30.36,NW,320,19.0,26.0,-999,-99.99,,,-99.99,,2013-01-16 15:23:00,
2013-01-16 09:33:00,42.0,-99.9,30.37,NW,323,18.0,25.0,-999,-99.99,,,-99.99,,2013-01-16 15:33:00,
2013-01-16 09:43:00,42.0,-99.9,30.37,NW,320,19.0,25.0,-999,-99.99,,,-99.99,,2013-01-16 15:43:00,
2013-01-16 09:53:00,42.0,-99.9,30.37,NW,321,18.0,25.0,-999,-99.99,,,-99.99,,2013-01-16 15:53:00,
2013-01-16 10:04:00,43.0,-99.9,30.37,NNW,328,19.0,23.0,-999,-99.99,,,-99.99,,2013-01-16 16:04:00,
2013-01-16 10:12:00,43.0,-99.9,30.37,NW,323,20.0,25.0,-999,-99.99,,,-99.99,,2013-01-16 16:12:00,
2013-01-16 10:23:00,43.0,-99.9,30.37,NW,325,19.0,25.0,-999,-99.99,,,-99.99,,2013-01-16 16:23:00,
2013-01-16 10:33:00,43.0,-99.9,30.37,NW,318,19.0,23.0,-999,-99.99,,,-99.99,,2013-01-16 16:33:00,
2013-01-16 10:43:00,43.0,-99.9,30.37,NW,317,16.0,22.0,-999,-99.99,,,-99.99,,2013-01-16 16:43:00,
2013-01-16 10:53:00,43.0,-99.9,30.37,NW,320,18.0,21.0,-999,-99.99,,,-99.99,,2013-01-16 16:53:00,
2013-01-16 11:03:00,43.0,-99.9,30.37,NW,316,15.0,19.0,-999,-99.99,,,-99.99,,2013-01-16 17:03:00,
2013-01-16 11:12:00,43.0,-99.9,30.37,NW,320,15.0,20.0,-999,-99.99,,,-99.99,,2013-01-16 17:12:00,
2013-01-16 11:23:00,43.0,-99.9,30.36,NW,322,15.0,19.0,-999,-99.99,,,-99.99,,2013-01-16 17:23:00,
2013-01-16 11:33:00,44.0,-99.9,30.35,NW,315,13.0,19.0,-999,-99.99,,,-99.99,,2013-01-16 17:33:00,
2013-01-16 11:44:00,44.0,-99.9,30.35,NW,322,15.0,21.0,-999,-99.99,,,-99.99,,2013-01-16 17:44:00,
2013-01-16 11:53:00,45.0,-99.9,30.35,NW,321,18.0,21.0,-999,-99.99,,,-99.99,,2013-01-16 17:53:00,
2013-01-16 12:03:00,46.0,-99.9,30.34,NW,317,14.0,20.0,-999,-99.99,,,-99.99,,2013-01-16 18:03:00,
2013-01-16 12:13:00,46.0,-99.9,30.34,NW,308,19.0,22.0,-999,-99.99,,,-99.99,,2013-01-16 18:13:00,
2013-01-16 12:23:00,46.0,-99.9,30.33,NW,320,17.0,22.0,-999,-99.99,,,-99.99,,2013-01-16 18:23:00,
2013-01-16 12:33:00,47.0,-99.9,30.32,NW,321,18.0,22.0,-999,-99.99,,,-99.99,,2013-01-16 18:33:00,
2013-01-16 12:43:00,47.0,-99.9,30.32,NW,325,15.0,18.0,-999,-99.99,,,-99.99,,2013-01-16 18:43:00,
2013-01-16 12:53:00,47.0,-99.9,30.31,NNW,332,14.0,17.0,-999,-99.99,,,-99.99,,2013-01-16 18:53:00,
2013-01-16 13:03:00,48.0,-99.9,30.30,NNW,335,15.0,19.0,-999,-99.99,,,-99.99,,2013-01-16 19:03:00,
2013-01-16 13:13:00,48.0,-99.9,30.29,NW,318,15.0,19.0,-999,-99.99,,,-99.99,,2013-01-16 19:13:00,
2013-01-16 13:23:00,49.0,-99.9,30.29,NW,324,12.0,18.0,-999,-99.99,,,-99.99,,2013-01-16 19:23:00,
2013-01-16 13:33:00,49.0,-99.9,30.28,NW,314,17.0,20.0,-999,-99.99,,,-99.99,,2013-01-16 19:33:00,
2013-01-16 13:43:00,50.0,-99.9,30.27,NW,319,13.0,18.0,-999,-99.99,,,-99.99,,2013-01-16 19:43:00,
2013-01-16 13:53:00,50.0,-99.9,30.26,NW,321,19.0,23.0,-999,-99.99,,,-99.99,,2013-01-16 19:53:00,
2013-01-16 14:03:00,51.0,-99.9,30.26,NW,305,18.0,22.0,-999,-99.99,,,-99.99,,2013-01-16 20:03:00,
2013-01-16 14:12:00,51.0,-99.9,30.25,NW,311,17.0,20.0,-999,-99.99,,,-99.99,,2013-01-16 20:12:00,
2013-01-16 14:23:00,52.0,-99.9,30.25,NW,321,18.0,24.0,-999,-99.99,,,-99.99,,2013-01-16 20:23:00,
2013-01-16 14:33:00,52.0,-99.9,30.25,NW,313,17.0,22.0,-999,-99.99,,,-99.99,,2013-01-16 20:33:00,
2013-01-16 14:43:00,53.0,-99.9,30.25,NW,309,15.0,22.0,-999,-99.99,,,-99.99,,2013-01-16 20:43:00,
2013-01-16 14:53:00,53.0,-99.9,30.24,NW,313,14.0,18.0,-999,-99.99,,,-99.99,,2013-01-16 20:53:00,
2013-01-16 15:03:00,53.0,-99.9,30.24,WNW,290,16.0,21.0,-999,-99.99,,,-99.99,,2013-01-16 21:03:00,
2013-01-16 15:13:00,54.0,-99.9,30.23,NW,307,16.0,21.0,-999,-99.99,,,-99.99,,2013-01-16 21:13:00,
2013-01-16 15:23:00,55.0,-99.9,30.23,NW,304,16.0,24.0,-999,-99.99,,,-99.99,,2013-01-16 21:23:00,
2013-01-16 15:33:00,55.0,-99.9,30.23,WNW,294,19.0,28.0,-999,-99.99,,,-99.99,,2013-01-16 21:33:00,
2013-01-16 15:43:00,55.0,-99.9,30.23,NW,305,21.0,26.0,-999,-99.99,,,-99.99,,2013-01-16 21:43:00,
2013-01-16 15:53:00,55.0,-99.9,30.23,WNW,301,18.0,25.0,-999,-99.99,,,-99.99,,2013-01-16 21:53:00,
2013-01-16 16:03:00,55.0,-99.9,30.23,West,278,17.0,23.0,-999,-99.99,,,-99.99,,2013-01-16 22:03:00,
2013-01-16 16:12:00,55.0,-99.9,30.22,WNW,288,16.0,27.0,-999,-99.99,,,-99.99,,2013-01-16 22:12:00,
2013-01-16 16:23:00,56.0,-99.9,30.22,WNW,290,20.0,26.0,-999,-99.99,,,-99.99,,2013-01-16 22:23:00,
2013-01-16 16:33:00,55.0,-99.9,30.22,WNW,303,16.0,24.0,-999,-99.99,,,-99.99,,2013-01-16 22:33:00,
2013-01-16 16:43:00,55.0,-99.9,30.22,WNW,289,11.0,19.0,-999,-99.99,,,-99.99,,2013-01-16 22:43:00,
2013-01-16 16:53:00,56.0,-99.9,30.22,WNW,293,16.0,20.0,-999,-99.99,,,-99.99,,2013-01-16 22:53:00,
2013-01-16 17:03:00,56.0,-99.9,30.22,WNW,291,14.0,21.0,-999,-99.99,,,-99.99,,2013-01-16 23:03:00,
2013-01-16 17:12:00,57.0,-99.9,30.22,WNW,295,15.0,21.0,-999,-99.99,,,-99.99,,2013-01-16 23:12:00,
2013-01-16 17:23:00,56.0,-99.9,30.22,WNW,295,18.0,23.0,-999,-99.99,,,-99.99,,2013-01-16 23:23:00,
2013-01-16 17:33:00,56.0,-99.9,30.22,WNW,290,17.0,24.0,-999,-99.99,,,-99.99,,2013-01-16 23:33:00,
2013-01-16 17:43:00,56.0,-99.9,30.23,WNW,292,15.0,22.0,-999,-99.99,,,-99.99,,2013-01-16 23:43:00,
2013-01-16 17:53:00,56.0,-99.9,30.23,WNW,290,18.0,21.0,-999,-99.99,,,-99.99,,2013-01-16 23:53:00,
2013-01-16 18:03:00,56.0,-99.9,30.23,WNW,293,14.0,19.0,-999,-99.99,,,-99.99,,2013-01-17 00:03:00,
2013-01-16 18:12:00,56.0,-99.9,30.24,WNW,290,13.0,18.0,-999,-99.99,,,-99.99,,2013-01-17 00:12:00,
2013-01-16 18:23:00,55.0,-99.9,30.24,NW,304,12.0,16.0,-999,-99.99,,,-99.99,,2013-01-17 00:23:00,
2013-01-16 18:33:00,55.0,-99.9,30.25,WNW,299,14.0,17.0,-999,-99.99,,,-99.99,,2013-01-17 00:33:00,
2013-01-16 18:42:00,55.0,-99.9,30.25,WNW,299,13.0,19.0,-999,-99.99,,,-99.99,,2013-01-17 00:42:00,
2013-01-16 18:53:00,54.0,-99.9,30.25,WNW,299,10.0,13.0,-999,-99.99,,,-99.99,,2013-01-17 00:53:00,
2013-01-16 19:02:00,54.0,-99.9,30.26,WNW,296,9.0,12.0,-999,-99.99,,,-99.99,,2013-01-17 01:02:00,
2013-01-16 19:12:00,54.0,-99.9,30.26,WNW,298,8.0,9.0,-999,-99.99,,,-99.99,,2013-01-17 01:12:00,
2013-01-16 19:22:00,53.0,-99.9,30.27,WNW,297,8.0,10.0,-999,-99.99,,,-99.99,,2013-01-17 01:22:00,
2013-01-16 19:33:00,53.0,-99.9,30.27,WNW,301,6.0,8.0,-999,-99.99,,,-99.99,,2013-01-17 01:33:00,
2013-01-16 19:43:00,53.0,-99.9,30.27,WNW,286,6.0,8.0,-999,-99.99,,,-99.99,,2013-01-17 01:43:00,
2013-01-16 19:53:00,53.0,-99.9,30.27,WNW,288,6.0,7.0,-999,-99.99,,,-99.99,,2013-01-17 01:53:00,
2013-01-16 20:02:00,53.0,-99.9,30.28,West,275,4.0,6.0,-999,-99.99,,,-99.99,,2013-01-17 02:02:00,
2013-01-16 20:12:00,52.0,-99.9,30.28,West,273,4.0,6.0,-999,-99.99,,,-99.99,,2013-01-17 02:12:00,
2013-01-16 20:22:00,51.0,-99.9,30.28,West,270,4.0,5.0,-999,-99.99,,,-99.99,,2013-01-17 02:22:00,
2013-01-16 20:32:00,50.0,-99.9,30.29,West,269,4.0,4.0,-999,-99.99,,,-99.99,,2013-01-17 02:32:00,
2013-01-16 20:43:00,50.0,-99.9,30.29,West,269,4.0,4.0,-999,-99.99,,,-99.99,,2013-01-17 02:43:00,
2013-01-16 20:52:00,50.0,-99.9,30.29,West,269,4.0,4.0,-999,-99.99,,,-99.99,,2013-01-17 02:52:00,
2013-01-16 21:03:00,49.0,-99.9,30.29,WSW,243,3.0,4.0,-999,-99.99,,,-99.99,,2013-01-17 03:03:00,
2013-01-16 21:12:00,49.0,-99.9,30.30,WSW,254,3.0,3.0,-999,-99.99,,,-99.99,,2013-01-17 03:12:00,
2013-01-16 21:22:00,48.0,-99.9,30.29,WSW,251,5.0,6.0,-999,-99.99,,,-99.99,,2013-01-17 03:22:00,
2013-01-16 21:33:00,48.0,-99.9,30.30,West,266,6.0,7.0,-999,-99.99,,,-99.99,,2013-01-17 03:33:00,
2013-01-16 21:43:00,47.0,-99.9,30.30,West,265,7.0,8.0,-999,-99.99,,,-99.99,,2013-01-17 03:43:00,
2013-01-16 21:53:00,47.0,-99.9,30.29,West,278,7.0,8.0,-999,-99.99,,,-99.99,,2013-01-17 03:53:00,
2013-01-16 22:02:00,47.0,-99.9,30.30,West,270,7.0,7.0,-999,-99.99,,,-99.99,,2013-01-17 04:02:00,
2013-01-16 22:12:00,47.0,-99.9,30.29,West,273,7.0,8.0,-999,-99.99,,,-99.99,,2013-01-17 04:12:00,
2013-01-16 22:23:00,47.0,-99.9,30.30,West,281,8.0,8.0,-999,-99.99,,,-99.99,,2013-01-17 04:23:00,
2013-01-16 22:33:00,48.0,-99.9,30.29,WNW,291,7.0,8.0,-999,-99.99,,,-99.99,,2013-01-17 04:33:00,
2013-01-16 22:43:00,49.0,-99.9,30.30,WNW,285,6.0,8.0,-999,-99.99,,,-99.99,,2013-01-17 04:43:00,
2013-01-16 22:53:00,49.0,-99.9,30.30,West,276,6.0,8.0,-999,-99.99,,,-99.99,,2013-01-17 04:53:00,
2013-01-16 23:05:00,46.0,-99.9,30.30,West,267,6.0,7.0,-999,-99.99,,,-99.99,,2013-01-17 05:05:00,
2013-01-16 23:12:00,47.0,-99.9,30.30,West,269,7.0,7.0,-999,-99.99,,,-99.99,,2013-01-17 05:12:00,
2013-01-16 23:22:00,46.0,-99.9,30.30,West,268,7.0,7.0,-999,-99.99,,,-99.99,,2013-01-17 05:22:00,
2013-01-16 23:33:00,46.0,-99.9,30.30,WNW,285,8.0,8.0,-999,-99.99,,,-99.99,,2013-01-17 05:33:00,
2013-01-16 23:43:00,48.0,-99.9,30.30,WSW,253,7.0,8.0,-999,-99.99,,,-99.99,,2013-01-17 05:43:00,
2013-01-16 23:53:00,45.0,-99.9,30.30,West,263,8.0,9.0,-999,-99.99,,,-99.99,,2013-01-17 05:53:00,